Terminal Aerodrome Forecast
Issued by NWS Twin Cities, MN

Home | Current Version | Previous Version | Text Only | Print | Product List | Glossary Off
Versions: 1 2 3 4 5 6 7 8 9 10 11 12 13 14 15 16 17 18 19 20 21 22 23 24 25 26

000
FTUS43 KMPX 260520
TAFMSP
TAF
KMSP 260520Z 2606/2712 03009KT 5SM -RA BR OVC007
     FM261100 36012G21KT P6SM -SHRA OVC008
     FM261700 34012G18KT P6SM OVC008
     FM262300 34010KT P6SM OVC010=

USA.gov is the U.S. government's official web portal to all federal, state and local government web resources and services.